createdAt,value
2017-02-24T00:00:23.074Z,0
2017-02-24T00:01:33.010Z,0
2017-02-24T00:02:42.184Z,0
2017-02-24T00:03:51.400Z,0
2017-02-24T00:05:01.335Z,0
2017-02-24T00:06:10.947Z,0
2017-02-24T00:07:20.107Z,0
2017-02-24T00:08:29.669Z,0
2017-02-24T00:09:39.224Z,0
2017-02-24T00:10:48.815Z,0
2017-02-24T00:11:58.774Z,0
2017-02-24T00:13:08.695Z,0
2017-02-24T00:14:18.621Z,0
2017-02-24T00:15:28.560Z,0
2017-02-24T00:16:38.098Z,0
2017-02-24T00:17:47.678Z,0
2017-02-24T00:18:57.259Z,0
2017-02-24T00:20:07.227Z,0
2017-02-24T00:21:16.389Z,0
2017-02-24T00:22:25.555Z,0
2017-02-24T00:23:34.339Z,0
2017-02-24T00:24:43.534Z,0
2017-02-24T00:25:52.658Z,0
2017-02-24T00:27:02.997Z,0
2017-02-24T00:28:12.561Z,0
2017-02-24T00:29:22.134Z,0
2017-02-24T00:30:31.312Z,0
2017-02-24T00:31:40.821Z,0
2017-02-24T00:32:50.371Z,0
2017-02-24T00:33:59.564Z,0
2017-02-24T00:35:09.519Z,0
2017-02-24T00:36:18.646Z,0
2017-02-24T00:37:28.977Z,0
2017-02-24T00:38:38.489Z,0
2017-02-24T00:39:48.815Z,0
2017-02-24T00:40:58.774Z,0
2017-02-24T00:42:08.342Z,0
2017-02-24T00:43:18.273Z,0
2017-02-24T00:44:27.858Z,0
2017-02-24T00:45:37.031Z,0
2017-02-24T00:46:46.209Z,0
2017-02-24T00:47:56.580Z,0
2017-02-24T00:49:05.752Z,0
2017-02-24T00:50:14.930Z,0
2017-02-24T00:51:24.473Z,0
2017-02-24T00:52:34.040Z,0
2017-02-24T00:53:43.600Z,0
2017-02-24T00:54:52.693Z,0
2017-02-24T00:56:02.196Z,0
2017-02-24T00:57:10.941Z,0
2017-02-24T00:58:19.718Z,0
2017-02-24T00:59:29.322Z,0
2017-02-24T01:00:40.005Z,0
2017-02-24T01:01:49.559Z,0
2017-02-24T01:02:58.723Z,0
2017-02-24T01:04:07.906Z,0
2017-02-24T01:05:17.455Z,0
2017-02-24T01:06:27.423Z,0
2017-02-24T01:07:37.697Z,0
2017-02-24T01:08:48.012Z,0
2017-02-24T01:09:57.950Z,0
2017-02-24T01:11:07.516Z,0
2017-02-24T01:12:17.070Z,0
2017-02-24T01:13:26.963Z,0
2017-02-24T01:14:36.893Z,0
2017-02-24T01:15:47.227Z,0
2017-02-24T01:16:57.176Z,0
2017-02-24T01:18:06.371Z,0
2017-02-24T01:19:15.943Z,0
2017-02-24T01:20:25.895Z,0
2017-02-24T01:21:35.894Z,0
2017-02-24T01:22:45.435Z,0
2017-02-24T01:23:55.448Z,0
2017-02-24T01:25:05.040Z,0
2017-02-24T01:26:14.226Z,0
2017-02-24T01:27:23.723Z,0
2017-02-24T01:28:33.668Z,0
2017-02-24T01:29:42.407Z,0
2017-02-24T01:30:51.908Z,0
2017-02-24T01:32:01.841Z,0
2017-02-24T01:33:11.070Z,0
2017-02-24T01:34:19.855Z,0
2017-02-24T01:35:28.602Z,0
2017-02-24T01:36:38.187Z,0
2017-02-24T01:37:47.346Z,0
2017-02-24T01:38:57.258Z,0
2017-02-24T01:40:07.520Z,0
2017-02-24T01:41:17.086Z,0
2017-02-24T01:42:26.648Z,0
2017-02-24T01:43:35.804Z,0
2017-02-24T01:44:44.546Z,0
2017-02-24T01:45:54.030Z,0
2017-02-24T01:47:03.538Z,0
2017-02-24T01:48:13.483Z,0
2017-02-24T01:49:23.063Z,0
2017-02-24T01:50:33.348Z,0
2017-02-24T01:51:42.511Z,0
2017-02-24T01:52:52.772Z,0
2017-02-24T01:54:01.937Z,0
2017-02-24T01:55:11.514Z,0
2017-02-24T01:56:20.317Z,0
2017-02-24T01:57:29.882Z,0
2017-02-24T01:58:39.466Z,0
2017-02-24T01:59:49.422Z,0
2017-02-24T02:00:59.578Z,0
2017-02-24T02:02:08.742Z,0
2017-02-24T02:03:17.969Z,0
2017-02-24T02:04:26.712Z,0
2017-02-24T02:05:35.526Z,0
2017-02-24T02:06:45.030Z,0
2017-02-24T02:07:54.955Z,0
2017-02-24T02:09:05.290Z,0
2017-02-24T02:10:14.469Z,0
2017-02-24T02:11:23.976Z,0
2017-02-24T02:12:33.544Z,0
2017-02-24T02:13:42.714Z,0
2017-02-24T02:14:52.289Z,0
2017-02-24T02:16:01.101Z,0
2017-02-24T02:17:11.383Z,0
2017-02-24T02:18:21.308Z,0
2017-02-24T02:19:30.086Z,0
2017-02-24T02:20:39.276Z,0
2017-02-24T02:21:49.233Z,0
2017-02-24T02:22:58.792Z,0
2017-02-24T02:24:08.779Z,0
2017-02-24T02:25:17.966Z,0
2017-02-24T02:26:27.162Z,0
2017-02-24T02:27:36.719Z,0
2017-02-24T02:28:46.289Z,0
2017-02-24T02:29:56.278Z,0
2017-02-24T02:31:06.240Z,0
2017-02-24T02:32:15.813Z,0
2017-02-24T02:33:26.170Z,0
2017-02-24T02:34:36.569Z,0
2017-02-24T02:35:46.073Z,0
2017-02-24T02:36:56.384Z,0
2017-02-24T02:38:05.568Z,0
2017-02-24T02:39:14.747Z,0
2017-02-24T02:40:24.319Z,0
2017-02-24T02:41:33.517Z,0
2017-02-24T02:42:42.645Z,0
2017-02-24T02:43:51.412Z,0
2017-02-24T02:45:00.591Z,0
2017-02-24T02:46:10.123Z,0
2017-02-24T02:47:19.659Z,0
2017-02-24T02:48:28.837Z,0
2017-02-24T02:49:37.974Z,0
2017-02-24T02:50:47.924Z,0
2017-02-24T02:51:57.497Z,0
2017-02-24T02:53:07.069Z,0
2017-02-24T02:54:15.858Z,0
2017-02-24T02:55:25.424Z,0
2017-02-24T02:56:34.610Z,0
2017-02-24T02:57:44.940Z,0
2017-02-24T02:58:54.901Z,0
2017-02-24T03:00:05.230Z,0
2017-02-24T03:01:14.409Z,0
2017-02-24T03:02:24.004Z,0
2017-02-24T03:03:34.348Z,0
2017-02-24T03:04:43.538Z,0
2017-02-24T03:05:53.423Z,0
2017-02-24T03:07:02.602Z,0
2017-02-24T03:08:12.568Z,0
2017-02-24T03:09:22.159Z,0
2017-02-24T03:10:32.118Z,0
2017-02-24T03:11:41.638Z,0
2017-02-24T03:12:51.589Z,0
2017-02-24T03:14:01.559Z,0
2017-02-24T03:15:11.066Z,0
2017-02-24T03:16:19.863Z,0
2017-02-24T03:17:29.416Z,0
2017-02-24T03:18:38.232Z,0
2017-02-24T03:19:47.777Z,0
2017-02-24T03:20:57.346Z,0
2017-02-24T03:22:07.278Z,0
2017-02-24T03:23:16.043Z,0
2017-02-24T03:24:25.638Z,0
2017-02-24T03:25:34.818Z,0
2017-02-24T03:26:44.387Z,0
2017-02-24T03:27:54.282Z,0
2017-02-24T03:29:04.242Z,0
2017-02-24T03:30:13.850Z,0
2017-02-24T03:31:23.055Z,0
2017-02-24T03:32:33.797Z,0
2017-02-24T03:33:43.737Z,0
2017-02-24T03:34:54.039Z,0
2017-02-24T03:36:04.018Z,0
2017-02-24T03:37:13.959Z,0
2017-02-24T03:38:23.518Z,0
2017-02-24T03:39:33.488Z,0
2017-02-24T03:40:43.378Z,0
2017-02-24T03:41:53.727Z,0
2017-02-24T03:43:03.262Z,0
2017-02-24T03:44:12.037Z,0
2017-02-24T03:45:21.988Z,0
2017-02-24T03:46:31.976Z,0
2017-02-24T03:47:41.548Z,0
2017-02-24T03:48:50.742Z,0
2017-02-24T03:49:59.942Z,0
2017-02-24T03:51:09.536Z,0
2017-02-24T03:52:18.738Z,0
2017-02-24T03:53:27.564Z,0
2017-02-24T03:54:36.807Z,0
2017-02-24T03:55:46.014Z,0
2017-02-24T03:56:56.033Z,0
2017-02-24T03:58:06.054Z,0
2017-02-24T03:59:15.243Z,0
2017-02-24T04:00:25.223Z,4
2017-02-24T04:01:35.578Z,0
2017-02-24T04:02:45.184Z,4
2017-02-24T04:03:55.195Z,4
2017-02-24T04:05:05.159Z,4
2017-02-24T04:06:15.153Z,4
2017-02-24T04:07:25.132Z,4
2017-02-24T04:08:35.112Z,4
2017-02-24T04:09:45.816Z,4
2017-02-24T04:10:54.954Z,4
2017-02-24T04:12:04.561Z,4
2017-02-24T04:13:14.103Z,4
2017-02-24T04:14:24.003Z,4
2017-02-24T04:15:33.578Z,4
2017-02-24T04:16:43.167Z,4
2017-02-24T04:17:53.145Z,4
2017-02-24T04:19:01.971Z,4
2017-02-24T04:20:11.556Z,4
2017-02-24T04:21:20.737Z,4
2017-02-24T04:22:29.924Z,4
2017-02-24T04:23:39.181Z,4
2017-02-24T04:24:49.183Z,0
2017-02-24T04:25:58.847Z,0
2017-02-24T04:27:08.424Z,0
2017-02-24T04:28:17.613Z,0
2017-02-24T04:29:27.205Z,0
2017-02-24T04:30:37.567Z,0
2017-02-24T04:31:47.952Z,0
2017-02-24T04:32:58.335Z,0
2017-02-24T04:34:07.531Z,0
2017-02-24T04:35:16.756Z,0
2017-02-24T04:36:26.770Z,0
2017-02-24T04:37:37.143Z,0
2017-02-24T04:38:47.049Z,0
2017-02-24T04:39:56.618Z,0
2017-02-24T04:41:06.239Z,0
2017-02-24T04:42:16.229Z,0
2017-02-24T04:43:25.767Z,0
2017-02-24T04:44:34.956Z,0
2017-02-24T04:45:44.550Z,0
2017-02-24T04:46:54.521Z,0
2017-02-24T04:48:05.289Z,0
2017-02-24T04:49:15.267Z,0
2017-02-24T04:50:24.088Z,0
2017-02-24T04:51:33.675Z,0
2017-02-24T04:52:42.862Z,0
2017-02-24T04:53:52.061Z,0
2017-02-24T04:55:02.396Z,0
2017-02-24T04:56:11.975Z,0
2017-02-24T04:57:21.950Z,0
2017-02-24T04:58:30.767Z,0
2017-02-24T04:59:40.304Z,0
2017-02-24T05:00:50.247Z,0
2017-02-24T05:02:00.211Z,0
2017-02-24T05:03:09.794Z,0
2017-02-24T05:04:19.378Z,0
2017-02-24T05:05:28.949Z,0
2017-02-24T05:06:38.554Z,0
2017-02-24T05:07:48.561Z,0
2017-02-24T05:08:58.144Z,0
2017-02-24T05:10:07.344Z,0
2017-02-24T05:11:16.160Z,0
2017-02-24T05:12:26.471Z,0
2017-02-24T05:13:35.257Z,0
2017-02-24T05:14:44.427Z,0
2017-02-24T05:15:53.993Z,0
2017-02-24T05:17:03.990Z,0
2017-02-24T05:18:13.977Z,0
2017-02-24T05:19:23.183Z,0
2017-02-24T05:20:32.389Z,0
2017-02-24T05:21:41.984Z,0
2017-02-24T05:22:51.573Z,0
2017-02-24T05:24:01.202Z,0
2017-02-24T05:25:11.588Z,0
2017-02-24T05:26:21.563Z,0
2017-02-24T05:27:31.466Z,0
2017-02-24T05:28:41.081Z,0
2017-02-24T05:29:50.295Z,0
2017-02-24T05:30:59.921Z,0
2017-02-24T05:32:09.124Z,0
2017-02-24T05:33:18.341Z,0
2017-02-24T05:34:27.545Z,0
2017-02-24T05:35:36.696Z,0
2017-02-24T05:36:47.059Z,0
2017-02-24T05:37:57.060Z,0
2017-02-24T05:39:07.038Z,0
2017-02-24T05:40:15.849Z,0
2017-02-24T05:41:25.033Z,0
2017-02-24T05:42:34.582Z,0
2017-02-24T05:43:44.563Z,0
2017-02-24T05:44:53.737Z,0
2017-02-24T05:46:03.330Z,0
2017-02-24T05:47:12.542Z,0
2017-02-24T05:48:22.159Z,0
2017-02-24T05:49:32.131Z,0
2017-02-24T05:50:42.103Z,0
2017-02-24T05:51:51.300Z,0
2017-02-24T05:53:00.882Z,0
2017-02-24T05:54:10.852Z,0
2017-02-24T05:55:20.026Z,0
2017-02-24T05:56:29.561Z,0
2017-02-24T05:57:38.755Z,0
2017-02-24T05:58:49.129Z,0
2017-02-24T05:59:58.725Z,0
2017-02-24T06:01:09.071Z,0
2017-02-24T06:02:18.675Z,0
2017-02-24T06:03:27.880Z,0
2017-02-24T06:04:37.797Z,0
2017-02-24T06:05:47.359Z,0
2017-02-24T06:06:56.942Z,0
2017-02-24T06:08:06.144Z,0
2017-02-24T06:09:15.725Z,0
2017-02-24T06:10:26.088Z,0
2017-02-24T06:11:36.466Z,0
2017-02-24T06:12:46.779Z,0
2017-02-24T06:13:56.772Z,0
2017-02-24T06:15:06.378Z,0
2017-02-24T06:16:15.925Z,0
2017-02-24T06:17:25.889Z,0
2017-02-24T06:18:35.079Z,0
2017-02-24T06:19:45.068Z,0
2017-02-24T06:20:53.870Z,0
2017-02-24T06:22:03.010Z,0
2017-02-24T06:23:12.929Z,0
2017-02-24T06:24:22.888Z,0
2017-02-24T06:25:32.092Z,0
2017-02-24T06:26:41.678Z,0
2017-02-24T06:27:51.261Z,0
2017-02-24T06:29:00.059Z,0
2017-02-24T06:30:10.812Z,4
2017-02-24T06:31:19.616Z,4
2017-02-24T06:32:29.220Z,4
2017-02-24T06:33:38.812Z,4
2017-02-24T06:34:48.027Z,4
2017-02-24T06:35:57.828Z,4
2017-02-24T06:37:07.029Z,4
2017-02-24T06:38:17.023Z,4
2017-02-24T06:39:26.592Z,4
2017-02-24T06:40:35.366Z,4
2017-02-24T06:41:44.951Z,4
2017-02-24T06:42:54.556Z,4
2017-02-24T06:44:03.757Z,4
2017-02-24T06:45:14.136Z,4
2017-02-24T06:46:23.728Z,4
2017-02-24T06:47:32.947Z,4
2017-02-24T06:48:42.156Z,4
2017-02-24T06:49:52.138Z,0
2017-02-24T06:51:02.453Z,4
2017-02-24T06:52:12.043Z,0
2017-02-24T06:53:21.596Z,4
2017-02-24T06:54:31.943Z,8
2017-02-24T06:55:42.303Z,84
2017-02-24T06:56:51.105Z,64
2017-02-24T06:58:00.349Z,56
2017-02-24T06:59:09.978Z,96
2017-02-24T07:00:18.798Z,92
2017-02-24T07:01:28.012Z,116
2017-02-24T07:02:37.162Z,152
2017-02-24T07:03:47.123Z,100
2017-02-24T07:04:56.719Z,60
2017-02-24T07:06:06.296Z,40
2017-02-24T07:07:16.297Z,48
2017-02-24T07:08:25.094Z,72
2017-02-24T07:09:34.682Z,64
2017-02-24T07:10:44.650Z,52
2017-02-24T07:11:54.972Z,32
2017-02-24T07:13:04.160Z,52
2017-02-24T07:14:13.365Z,60
2017-02-24T07:15:22.120Z,92
2017-02-24T07:16:31.309Z,100
2017-02-24T07:17:41.310Z,80
2017-02-24T07:18:50.918Z,76
2017-02-24T07:20:00.073Z,48
2017-02-24T07:21:10.426Z,68
2017-02-24T07:22:20.429Z,52
2017-02-24T07:23:30.034Z,44
2017-02-24T07:24:39.612Z,64
2017-02-24T07:25:48.775Z,108
2017-02-24T07:26:58.408Z,100
2017-02-24T07:28:08.391Z,72
2017-02-24T07:29:17.991Z,84
2017-02-24T07:30:27.186Z,92
2017-02-24T07:31:36.379Z,132
2017-02-24T07:32:45.965Z,116
2017-02-24T07:33:54.761Z,68
2017-02-24T07:35:04.335Z,60
2017-02-24T07:36:14.320Z,76
2017-02-24T07:37:23.528Z,92
2017-02-24T07:38:32.750Z,136
2017-02-24T07:39:42.335Z,108
2017-02-24T07:40:51.528Z,164
2017-02-24T07:42:00.919Z,152
2017-02-24T07:43:10.551Z,148
2017-02-24T07:44:20.505Z,156
2017-02-24T07:45:30.132Z,152
2017-02-24T07:46:40.112Z,188
2017-02-24T07:47:49.698Z,320
2017-02-24T07:48:59.278Z,172
2017-02-24T07:50:08.504Z,128
2017-02-24T07:51:18.478Z,152
2017-02-24T07:52:28.023Z,212
2017-02-24T07:53:37.606Z,284
2017-02-24T07:54:47.218Z,224
2017-02-24T07:55:56.853Z,152
2017-02-24T07:57:06.450Z,236
2017-02-24T07:58:15.643Z,476
2017-02-24T07:59:25.217Z,368
2017-02-24T08:00:35.524Z,536
2017-02-24T08:01:45.878Z,624
2017-02-24T08:02:55.478Z,408
2017-02-24T08:04:04.300Z,244
2017-02-24T08:05:13.460Z,312
2017-02-24T08:06:23.048Z,740
2017-02-24T08:07:32.641Z,812
2017-02-24T08:08:42.238Z,760
2017-02-24T08:09:51.457Z,1132
2017-02-24T08:11:01.824Z,1168
2017-02-24T08:12:11.782Z,1736
2017-02-24T08:13:21.310Z,1064
2017-02-24T08:14:31.235Z,2012
2017-02-24T08:15:41.224Z,2208
2017-02-24T08:16:51.210Z,1232
2017-02-24T08:18:01.217Z,692
2017-02-24T08:19:11.196Z,948
2017-02-24T08:20:21.171Z,2016
2017-02-24T08:21:30.771Z,2744
2017-02-24T08:22:40.753Z,2232
2017-02-24T08:23:50.289Z,1252
2017-02-24T08:25:00.245Z,1100
2017-02-24T08:26:09.449Z,1352
2017-02-24T08:27:18.583Z,1696
2017-02-24T08:28:28.567Z,1532
2017-02-24T08:29:37.755Z,3124
2017-02-24T08:30:46.940Z,1552
2017-02-24T08:31:56.157Z,2324
2017-02-24T08:33:05.369Z,1472
2017-02-24T08:34:15.751Z,3232
2017-02-24T08:35:24.559Z,1352
2017-02-24T08:36:34.493Z,1388
2017-02-24T08:37:44.498Z,1360
2017-02-24T08:38:54.846Z,812
2017-02-24T08:40:04.935Z,884
2017-02-24T08:41:13.739Z,744
2017-02-24T08:42:23.311Z,1432
2017-02-24T08:43:32.876Z,1124
2017-02-24T08:44:43.653Z,3496
2017-02-24T08:45:52.405Z,2064
2017-02-24T08:47:02.369Z,2000
2017-02-24T08:48:12.350Z,3156
2017-02-24T08:49:22.728Z,2548
2017-02-24T08:50:32.311Z,2416
2017-02-24T08:51:42.272Z,2436
2017-02-24T08:52:51.854Z,2304
2017-02-24T08:54:01.848Z,1668
2017-02-24T08:55:11.837Z,4448
2017-02-24T08:56:21.448Z,4200
2017-02-24T08:57:30.609Z,1832
2017-02-24T08:58:40.203Z,4060
2017-02-24T08:59:49.412Z,2892
2017-02-24T09:00:58.996Z,3944
2017-02-24T09:02:08.189Z,4796
2017-02-24T09:03:17.399Z,1516
2017-02-24T09:04:26.991Z,1556
2017-02-24T09:05:36.574Z,3868
2017-02-24T09:06:45.791Z,3872
2017-02-24T09:07:55.405Z,4428
2017-02-24T09:09:05.809Z,4104
2017-02-24T09:10:15.394Z,2948
2017-02-24T09:11:24.611Z,2008
2017-02-24T09:12:34.586Z,3324
2017-02-24T09:13:44.160Z,2052
2017-02-24T09:14:53.754Z,1600
2017-02-24T09:16:03.350Z,1912
2017-02-24T09:17:13.706Z,4708
2017-02-24T09:18:23.654Z,1348
2017-02-24T09:19:32.463Z,976
2017-02-24T09:20:41.679Z,2096
2017-02-24T09:21:51.643Z,2344
2017-02-24T09:23:01.235Z,3436
2017-02-24T09:24:11.222Z,4312
2017-02-24T09:25:20.822Z,5012
2017-02-24T09:26:29.596Z,5800
2017-02-24T09:27:39.558Z,3528
2017-02-24T09:28:48.755Z,2052
2017-02-24T09:29:58.277Z,2560
2017-02-24T09:31:07.892Z,2632
2017-02-24T09:32:17.504Z,4832
2017-02-24T09:33:27.112Z,6612
2017-02-24T09:34:37.110Z,6240
2017-02-24T09:35:47.102Z,6260
2017-02-24T09:36:57.026Z,5828
2017-02-24T09:38:07.000Z,1080
2017-02-24T09:39:16.595Z,1284
2017-02-24T09:40:26.126Z,1656
2017-02-24T09:41:35.315Z,6140
2017-02-24T09:42:44.939Z,3200
2017-02-24T09:43:55.300Z,2024
2017-02-24T09:45:05.106Z,1244
2017-02-24T09:46:14.314Z,1032
2017-02-24T09:47:24.700Z,2028
2017-02-24T09:48:33.920Z,14128
2017-02-24T09:49:43.486Z,2136
2017-02-24T09:50:52.675Z,1892
2017-02-24T09:52:02.600Z,1436
2017-02-24T09:53:12.181Z,876
2017-02-24T09:54:22.112Z,692
2017-02-24T09:55:31.294Z,612
2017-02-24T09:56:41.270Z,608
2017-02-24T09:57:50.463Z,580
2017-02-24T09:59:00.816Z,488
2017-02-24T10:00:11.219Z,568
2017-02-24T10:01:20.818Z,688
2017-02-24T10:02:31.117Z,1836
2017-02-24T10:03:40.700Z,3028
2017-02-24T10:04:50.311Z,3220
2017-02-24T10:06:00.271Z,16552
2017-02-24T10:07:10.643Z,1180
2017-02-24T10:08:20.236Z,884
2017-02-24T10:09:29.871Z,1188
2017-02-24T10:10:39.482Z,4416
2017-02-24T10:11:49.844Z,8396
2017-02-24T10:12:59.427Z,1472
2017-02-24T10:14:08.589Z,2816
2017-02-24T10:15:18.181Z,10884
2017-02-24T10:16:27.371Z,1048
2017-02-24T10:17:36.592Z,1092
2017-02-24T10:18:46.189Z,1976
2017-02-24T10:19:54.990Z,8356
2017-02-24T10:21:05.127Z,22240
2017-02-24T10:22:14.696Z,32448
2017-02-24T10:23:24.698Z,34464
2017-02-24T10:24:33.507Z,27424
2017-02-24T10:25:42.718Z,27776
2017-02-24T10:26:53.084Z,21152
2017-02-24T10:28:03.003Z,37728
2017-02-24T10:29:12.564Z,37440
2017-02-24T10:30:21.383Z,27520
2017-02-24T10:31:30.949Z,1924
2017-02-24T10:32:40.910Z,28096
2017-02-24T10:33:51.296Z,5668
2017-02-24T10:35:00.878Z,37952
2017-02-24T10:36:11.191Z,1392
2017-02-24T10:37:20.774Z,1364
2017-02-24T10:38:30.368Z,4296
2017-02-24T10:39:40.319Z,10072
2017-02-24T10:40:49.464Z,2912
2017-02-24T10:41:58.990Z,2744
2017-02-24T10:43:09.153Z,1472
2017-02-24T10:44:17.988Z,1024
2017-02-24T10:45:27.180Z,872
2017-02-24T10:46:36.756Z,852
2017-02-24T10:47:45.954Z,1136
2017-02-24T10:48:55.938Z,24960
2017-02-24T10:50:05.096Z,31136
2017-02-24T10:51:15.089Z,1896
2017-02-24T10:52:24.685Z,5492
2017-02-24T10:53:33.493Z,34432
2017-02-24T10:54:43.048Z,35424
2017-02-24T10:55:52.234Z,30112
2017-02-24T10:57:01.437Z,32448
2017-02-24T10:58:10.596Z,30528
2017-02-24T10:59:20.549Z,28544
2017-02-24T11:00:30.076Z,28480
2017-02-24T11:01:39.650Z,27200
2017-02-24T11:02:49.247Z,25344
2017-02-24T11:03:58.824Z,6884
2017-02-24T11:05:08.072Z,3520
2017-02-24T11:06:17.626Z,4892
2017-02-24T11:07:27.976Z,6340
2017-02-24T11:08:37.525Z,4604
2017-02-24T11:09:46.709Z,6136
2017-02-24T11:10:56.294Z,1968
2017-02-24T11:12:06.603Z,972
2017-02-24T11:13:15.811Z,984
2017-02-24T11:14:25.006Z,1188
2017-02-24T11:15:34.174Z,1020
2017-02-24T11:16:43.713Z,1060
2017-02-24T11:17:53.304Z,920
2017-02-24T11:19:03.556Z,1180
2017-02-24T11:20:13.181Z,5856
2017-02-24T11:21:22.767Z,5920
2017-02-24T11:22:31.953Z,5952
2017-02-24T11:23:41.570Z,6020
2017-02-24T11:24:50.773Z,6016
2017-02-24T11:25:59.971Z,6024
2017-02-24T11:27:09.564Z,6000
2017-02-24T11:28:19.097Z,5928
2017-02-24T11:29:29.034Z,5968
2017-02-24T11:30:38.990Z,5996
2017-02-24T11:31:48.976Z,5964
2017-02-24T11:32:58.571Z,5884
2017-02-24T11:34:09.270Z,6044
2017-02-24T11:35:18.064Z,5964
2017-02-24T11:36:28.444Z,6604
2017-02-24T11:37:39.182Z,2440
2017-02-24T11:38:48.769Z,2960
2017-02-24T11:39:58.367Z,2336
2017-02-24T11:41:09.132Z,1436
2017-02-24T11:42:19.103Z,1308
2017-02-24T11:43:28.638Z,13056
2017-02-24T11:44:38.988Z,2448
2017-02-24T11:45:49.371Z,11376
2017-02-24T11:46:59.289Z,2896
2017-02-24T11:48:08.847Z,3672
2017-02-24T11:49:17.648Z,3640
2017-02-24T11:50:26.841Z,8368
2017-02-24T11:51:36.066Z,4340
2017-02-24T11:52:46.050Z,5548
2017-02-24T11:53:56.412Z,4972
2017-02-24T11:55:05.970Z,4672
2017-02-24T11:56:15.594Z,3932
2017-02-24T11:57:25.592Z,4728
2017-02-24T11:58:35.597Z,7516
2017-02-24T11:59:45.976Z,6580
2017-02-24T12:00:55.965Z,5816
2017-02-24T12:02:05.917Z,5596
2017-02-24T12:03:16.230Z,6168
2017-02-24T12:04:26.133Z,6852
2017-02-24T12:05:35.262Z,3748
2017-02-24T12:06:44.067Z,3328
2017-02-24T12:07:53.217Z,1632
2017-02-24T12:09:02.767Z,1520
2017-02-24T12:10:11.956Z,9776
2017-02-24T12:11:22.319Z,10252
2017-02-24T12:12:31.965Z,4608
2017-02-24T12:13:41.950Z,3580
2017-02-24T12:14:51.113Z,3440
2017-02-24T12:16:00.702Z,2440
2017-02-24T12:17:10.292Z,2076
2017-02-24T12:18:19.874Z,3688
2017-02-24T12:19:29.012Z,3804
2017-02-24T12:20:38.613Z,3700
2017-02-24T12:21:48.172Z,4024
2017-02-24T12:22:58.879Z,4016
2017-02-24T12:24:08.453Z,3844
2017-02-24T12:25:18.437Z,4172
2017-02-24T12:26:27.991Z,3612
2017-02-24T12:27:37.182Z,4284
2017-02-24T12:28:47.558Z,4084
2017-02-24T12:29:57.139Z,3540
2017-02-24T12:31:07.076Z,3072
2017-02-24T12:32:16.606Z,3788
2017-02-24T12:33:26.989Z,3756
2017-02-24T12:34:36.986Z,3816
2017-02-24T12:35:46.582Z,3632
2017-02-24T12:36:56.576Z,3676
2017-02-24T12:38:06.191Z,2440
2017-02-24T12:39:16.176Z,3128
2017-02-24T12:40:26.525Z,2916
2017-02-24T12:41:35.708Z,2668
2017-02-24T12:42:45.291Z,1920
2017-02-24T12:43:55.285Z,1664
2017-02-24T12:45:05.277Z,2120
2017-02-24T12:46:15.994Z,1920
2017-02-24T12:47:25.577Z,1664
2017-02-24T12:48:35.176Z,1528
2017-02-24T12:49:44.421Z,1472
2017-02-24T12:50:54.034Z,1152
2017-02-24T12:52:03.570Z,912
2017-02-24T12:53:13.544Z,824
2017-02-24T12:54:23.516Z,700
2017-02-24T12:55:33.486Z,468
2017-02-24T12:56:42.697Z,328
2017-02-24T12:57:51.505Z,248
2017-02-24T12:59:01.475Z,192
2017-02-24T13:00:10.682Z,168
2017-02-24T13:01:21.046Z,152
2017-02-24T13:02:31.444Z,112
2017-02-24T13:03:40.656Z,120
2017-02-24T13:04:51.414Z,160
2017-02-24T13:06:00.969Z,224
2017-02-24T13:07:10.968Z,328
2017-02-24T13:08:20.958Z,336
2017-02-24T13:09:30.570Z,424
2017-02-24T13:10:40.558Z,384
2017-02-24T13:11:50.542Z,356
2017-02-24T13:13:00.535Z,420
2017-02-24T13:14:10.894Z,460
2017-02-24T13:15:20.844Z,496
2017-02-24T13:16:30.460Z,552
2017-02-24T13:17:39.706Z,676
2017-02-24T13:18:49.291Z,840
2017-02-24T13:19:59.284Z,1060
2017-02-24T13:21:08.106Z,1284
2017-02-24T13:22:16.907Z,1420
2017-02-24T13:23:25.748Z,1764
2017-02-24T13:24:34.573Z,2544
2017-02-24T13:25:44.180Z,2904
2017-02-24T13:26:53.719Z,2828
2017-02-24T13:28:03.676Z,2676
2017-02-24T13:29:14.055Z,2404
2017-02-24T13:30:24.068Z,2084
2017-02-24T13:31:33.676Z,2092
2017-02-24T13:32:43.276Z,1776
2017-02-24T13:33:52.455Z,1684
2017-02-24T13:35:02.388Z,1552
2017-02-24T13:36:12.740Z,1588
2017-02-24T13:37:22.723Z,1536
2017-02-24T13:38:32.707Z,1436
2017-02-24T13:39:43.076Z,1364
2017-02-24T13:40:53.441Z,1328
2017-02-24T13:42:02.756Z,1332
2017-02-24T13:43:11.975Z,1372
2017-02-24T13:44:21.596Z,1356
2017-02-24T13:45:31.793Z,1368
2017-02-24T13:46:40.604Z,1424
2017-02-24T13:47:49.789Z,848
2017-02-24T13:49:00.105Z,1000
2017-02-24T13:50:10.062Z,1316
2017-02-24T13:51:20.044Z,1956
2017-02-24T13:52:30.023Z,1356
2017-02-24T13:53:40.384Z,1056
2017-02-24T13:54:49.924Z,888
2017-02-24T13:55:59.489Z,812
2017-02-24T13:57:09.874Z,836
2017-02-24T13:58:19.066Z,780
2017-02-24T13:59:27.890Z,736
2017-02-24T14:00:37.880Z,744
2017-02-24T14:01:46.696Z,740
2017-02-24T14:02:57.081Z,756
2017-02-24T14:04:06.628Z,740
2017-02-24T14:05:16.607Z,740
2017-02-24T14:06:26.979Z,712
2017-02-24T14:07:36.174Z,740
2017-02-24T14:08:45.779Z,864
2017-02-24T14:09:55.763Z,1076
2017-02-24T14:11:04.930Z,908
2017-02-24T14:12:14.140Z,1032
2017-02-24T14:13:23.735Z,780
2017-02-24T14:14:32.515Z,680
2017-02-24T14:15:42.474Z,744
2017-02-24T14:16:51.703Z,776
2017-02-24T14:18:01.275Z,968
2017-02-24T14:19:10.028Z,916
2017-02-24T14:20:20.033Z,772
2017-02-24T14:21:30.023Z,672
2017-02-24T14:22:38.830Z,708
2017-02-24T14:23:48.336Z,628
2017-02-24T14:24:58.295Z,600
2017-02-24T14:26:08.048Z,716
2017-02-24T14:27:17.679Z,744
2017-02-24T14:28:28.007Z,752
2017-02-24T14:29:37.145Z,740
2017-02-24T14:30:46.690Z,636
2017-02-24T14:31:55.886Z,616
2017-02-24T14:33:05.880Z,660
2017-02-24T14:34:15.418Z,604
2017-02-24T14:35:25.383Z,520
2017-02-24T14:36:35.354Z,432
2017-02-24T14:37:45.342Z,440
2017-02-24T14:38:54.100Z,488
2017-02-24T14:40:04.205Z,388
2017-02-24T14:41:13.735Z,328
2017-02-24T14:42:22.933Z,352
2017-02-24T14:43:32.508Z,480
2017-02-24T14:44:42.098Z,628
2017-02-24T14:45:51.253Z,632
2017-02-24T14:47:00.468Z,836
2017-02-24T14:48:10.079Z,712
2017-02-24T14:49:19.309Z,560
2017-02-24T14:50:28.558Z,536
2017-02-24T14:51:38.515Z,560
2017-02-24T14:52:48.439Z,620
2017-02-24T14:53:57.247Z,668
2017-02-24T14:55:06.804Z,668
2017-02-24T14:56:15.967Z,544
2017-02-24T14:57:25.885Z,520
2017-02-24T14:58:35.797Z,488
2017-02-24T14:59:45.372Z,460
2017-02-24T15:00:54.143Z,396
2017-02-24T15:02:04.133Z,332
2017-02-24T15:03:13.346Z,312
2017-02-24T15:04:22.883Z,304
2017-02-24T15:05:32.504Z,316
2017-02-24T15:06:42.483Z,352
2017-02-24T15:07:52.078Z,420
2017-02-24T15:09:01.276Z,404
2017-02-24T15:10:10.879Z,296
2017-02-24T15:11:21.250Z,240
2017-02-24T15:12:30.449Z,224
2017-02-24T15:13:39.641Z,228
2017-02-24T15:14:49.236Z,236
2017-02-24T15:15:58.839Z,252
2017-02-24T15:17:08.784Z,264
2017-02-24T15:18:18.006Z,272
2017-02-24T15:19:27.164Z,264
2017-02-24T15:20:36.766Z,248
2017-02-24T15:21:45.966Z,252
2017-02-24T15:22:55.537Z,260
2017-02-24T15:24:05.769Z,284
2017-02-24T15:25:14.969Z,320
2017-02-24T15:26:24.542Z,364
2017-02-24T15:27:34.534Z,496
2017-02-24T15:28:44.108Z,464
2017-02-24T15:29:53.254Z,448
2017-02-24T15:31:02.384Z,484
2017-02-24T15:32:11.921Z,392
2017-02-24T15:33:20.921Z,344
2017-02-24T15:34:30.894Z,288
2017-02-24T15:35:40.427Z,280
2017-02-24T15:36:49.990Z,276
2017-02-24T15:37:59.202Z,252
2017-02-24T15:39:08.707Z,260
2017-02-24T15:40:18.331Z,332
2017-02-24T15:41:27.529Z,372
2017-02-24T15:42:37.125Z,340
2017-02-24T15:43:47.831Z,304
2017-02-24T15:44:57.799Z,296
2017-02-24T15:46:07.759Z,300
2017-02-24T15:47:17.763Z,304
2017-02-24T15:48:27.366Z,288
2017-02-24T15:49:36.939Z,268
2017-02-24T15:50:46.495Z,264
2017-02-24T15:51:56.075Z,256
2017-02-24T15:53:05.603Z,284
2017-02-24T15:54:14.762Z,304
2017-02-24T15:55:24.732Z,288
2017-02-24T15:56:33.511Z,248
2017-02-24T15:57:43.096Z,216
2017-02-24T15:58:52.309Z,184
2017-02-24T16:00:01.534Z,172
2017-02-24T16:01:12.296Z,156
2017-02-24T16:02:22.270Z,128
2017-02-24T16:03:31.486Z,116
2017-02-24T16:04:41.028Z,116
2017-02-24T16:05:50.610Z,112
2017-02-24T16:06:59.814Z,112
2017-02-24T16:08:10.180Z,100
2017-02-24T16:09:20.163Z,96
2017-02-24T16:10:29.360Z,92
2017-02-24T16:11:39.330Z,96
2017-02-24T16:12:48.485Z,104
2017-02-24T16:13:58.071Z,104
2017-02-24T16:15:08.850Z,96
2017-02-24T16:16:18.377Z,96
2017-02-24T16:17:27.563Z,92